Time;durP1;ratioP1;P1;durP2;ratioP2;P2;SDS_P1;SDS_P2;PMS_P1;PMS_P2;Temp;Humidity;BMP_temperature;BMP_pressure;BME280_temperature;BME280_humidity;BME280_pressure;Samples;Min_cycle;Max_cycle;Signal;HPM_P1;HPM_P2
2024/04/19 00:00:53;;;;;;;7.67;6.13;;;;;;;4.36;78.13;95753.81;5432201;26;20300;-76
2024/04/19 00:03:18;;;;;;;7.97;6.37;;;;;;;4.38;78.56;95746.81;5442687;26;20263;-80
2024/04/19 00:05:44;;;;;;;8.40;6.07;;;;;;;4.60;77.07;95744.41;5439168;26;20241;-78
2024/04/19 00:08:09;;;;;;;9.60;6.63;;;;;;;4.36;77.58;95743.53;5407546;26;20261;-77
2024/04/19 00:10:35;;;;;;;9.47;6.33;;;;;;;4.59;77.07;95740.19;5429419;26;20731;-78
2024/04/19 00:13:01;;;;;;;7.57;6.10;;;;;;;4.62;76.57;95741.75;5427318;26;20286;-78
2024/04/19 00:15:27;;;;;;;7.70;6.43;;;;;;;4.63;76.32;95736.47;5424623;26;20273;-78
2024/04/19 00:17:52;;;;;;;7.80;5.87;;;;;;;4.72;75.78;95733.25;5401489;26;20253;-77
2024/04/19 00:20:17;;;;;;;6.97;5.90;;;;;;;4.77;75.35;95736.34;5436952;26;20704;-78
2024/04/19 00:22:42;;;;;;;6.97;5.90;;;;;;;4.83;75.35;95725.59;5438162;26;20239;-77
2024/04/19 00:25:08;;;;;;;11.53;6.70;;;;;;;4.84;74.95;95727.25;5430791;26;20648;-78
2024/04/19 00:27:33;;;;;;;6.77;5.50;;;;;;;4.96;74.83;95727.34;5434083;26;20559;-78
2024/04/19 00:29:59;;;;;;;6.87;6.03;;;;;;;5.00;74.40;95723.59;5440925;26;20234;-77
2024/04/19 00:32:24;;;;;;;8.33;5.87;;;;;;;4.98;74.64;95726.28;5434175;26;20284;-78
2024/04/19 00:34:49;;;;;;;10.03;5.77;;;;;;;5.07;73.74;95719.66;5428393;26;20357;-77
2024/04/19 00:37:18;;;;;;;6.60;5.57;;;;;;;5.13;73.32;95721.81;5390016;26;20606;-77
2024/04/19 00:39:43;;;;;;;6.77;5.47;;;;;;;5.07;73.42;95720.47;5445404;26;20822;-78
2024/04/19 00:42:08;;;;;;;8.60;5.53;;;;;;;5.06;73.37;95720.59;5412492;26;20246;-77
2024/04/19 00:44:34;;;;;;;9.57;5.40;;;;;;;4.97;73.25;95718.69;5431673;26;20286;-76
2024/04/19 00:46:59;;;;;;;8.50;5.60;;;;;;;5.08;72.40;95724.69;5435854;26;20264;-76
2024/04/19 00:49:25;;;;;;;6.53;5.40;;;;;;;5.06;72.15;95724.00;5393125;26;20259;-77
2024/04/19 00:51:51;;;;;;;5.97;5.20;;;;;;;5.10;72.27;95719.44;5433414;26;20227;-77
2024/04/19 00:54:16;;;;;;;6.30;5.37;;;;;;;5.02;71.53;95716.56;5435341;26;20235;-78
2024/04/19 00:56:42;;;;;;;6.57;4.97;;;;;;;4.98;70.82;95718.56;5433260;26;20285;-77
2024/04/19 00:59:08;;;;;;;5.83;5.23;;;;;;;4.89;71.19;95715.81;5402988;26;20264;-77
2024/04/19 01:01:34;;;;;;;7.00;4.63;;;;;;;4.77;71.29;95714.91;5436417;26;20335;-76
2024/04/19 01:03:59;;;;;;;7.43;5.00;;;;;;;5.03;71.29;95715.66;5434809;26;20286;-77
2024/04/19 01:06:25;;;;;;;9.07;4.70;;;;;;;4.98;71.29;95707.44;5443375;26;20238;-77
2024/04/19 01:08:50;;;;;;;5.50;4.33;;;;;;;5.06;70.03;95710.28;5435526;26;20249;-78
2024/04/19 01:11:15;;;;;;;5.63;4.67;;;;;;;4.95;69.66;95715.41;5433852;26;20303;-78
2024/04/19 01:13:42;;;;;;;6.50;4.77;;;;;;;4.97;70.18;95705.81;5446593;26;20285;-78
2024/04/19 01:16:07;;;;;;;5.20;4.70;;;;;;;4.96;70.16;95702.41;5411508;26;20238;-78
2024/04/19 01:18:33;;;;;;;5.87;4.43;;;;;;;5.02;70.20;95709.69;5433008;26;20280;-78
2024/04/19 01:20:58;;;;;;;6.70;4.47;;;;;;;5.06;70.25;95694.84;5438132;26;20238;-78
2024/04/19 01:23:23;;;;;;;5.73;4.60;;;;;;;5.06;70.27;95700.00;5430491;26;20345;-77
2024/04/19 01:25:49;;;;;;;5.53;4.80;;;;;;;5.01;70.74;95696.94;5400479;26;20282;-78
2024/04/19 01:28:14;;;;;;;6.27;4.60;;;;;;;4.92;70.84;95692.44;5437533;26;20246;-78
2024/04/19 01:30:44;;;;;;;6.10;4.67;;;;;;;4.87;71.65;95690.22;5432874;26;20569;-78
2024/04/19 01:33:10;;;;;;;8.10;5.10;;;;;;;4.74;71.78;95695.38;5376575;26;20245;-77
2024/04/19 01:35:35;;;;;;;6.13;4.73;;;;;;;4.82;72.01;95695.66;5429479;26;20288;-76
2024/04/19 01:38:01;;;;;;;6.90;5.10;;;;;;;5.03;71.09;95687.34;5392667;26;20269;-78
2024/04/19 01:40:26;;;;;;;7.47;5.70;;;;;;;4.98;71.14;95687.69;5392425;26;20242;-78
2024/04/19 01:42:51;;;;;;;6.40;4.80;;;;;;;4.92;71.36;95685.53;5428481;26;20290;-76
2024/04/19 01:45:17;;;;;;;7.23;5.03;;;;;;;4.99;71.12;95681.59;5435362;26;20798;-78
2024/04/19 01:47:42;;;;;;;7.37;4.80;;;;;;;4.83;71.29;95678.47;5427082;26;20337;-78
2024/04/19 01:50:08;;;;;;;7.63;5.40;;;;;;;4.67;71.77;95678.72;5443187;26;20283;-77
2024/04/19 01:52:34;;;;;;;9.50;5.20;;;;;;;4.91;71.39;95672.78;5395062;26;20332;-78
2024/04/19 01:54:59;;;;;;;6.93;5.57;;;;;;;4.74;71.57;95669.66;5408305;26;20247;-78
2024/04/19 01:57:24;;;;;;;7.80;5.47;;;;;;;4.83;71.82;95675.91;5434241;26;20611;-79
2024/04/19 01:59:50;;;;;;;6.70;5.83;;;;;;;4.81;71.96;95672.63;5434775;26;20239;-78
2024/04/19 02:02:15;;;;;;;8.03;5.53;;;;;;;4.86;71.58;95672.28;5443713;26;20303;-79
2024/04/19 02:04:40;;;;;;;8.70;5.63;;;;;;;4.73;72.22;95674.91;5411319;26;20249;-78
2024/04/19 02:07:06;;;;;;;7.73;5.07;;;;;;;4.68;72.58;95658.97;5408046;26;20375;-78
2024/04/19 02:09:35;;;;;;;7.57;5.43;;;;;;;4.52;73.01;95665.22;5402630;26;20234;-77
2024/04/19 02:12:00;;;;;;;7.47;5.43;;;;;;;4.63;73.00;95661.06;5437321;26;20240;-78
2024/04/19 02:14:26;;;;;;;7.27;5.53;;;;;;;4.74;72.80;95666.25;5447960;26;20230;-78
2024/04/19 02:16:51;;;;;;;7.00;5.47;;;;;;;4.73;72.89;95665.44;5409627;26;20247;-78
2024/04/19 02:19:16;;;;;;;8.67;6.10;;;;;;;4.70;72.85;95662.28;5432186;26;20247;-78
2024/04/19 02:21:42;;;;;;;9.30;5.70;;;;;;;4.80;72.75;95648.66;5401103;26;20254;-78
2024/04/19 02:24:08;;;;;;;7.13;5.27;;;;;;;4.58;73.58;95650.28;5441062;26;20285;-78
2024/04/19 02:26:34;;;;;;;7.43;5.80;;;;;;;4.66;73.10;95645.41;5442600;26;20743;-78
2024/04/19 02:31:44;;;;;;;11.70;5.67;;;;;;;4.52;73.98;95641.25;5438134;26;20265;-78
2024/04/19 02:34:09;;;;;;;7.27;5.50;;;;;;;4.50;73.78;95625.91;5406839;26;20248;-78
2024/04/19 02:36:35;;;;;;;7.43;5.47;;;;;;;4.67;73.17;95621.31;5397665;26;20334;-78
2024/04/19 02:39:00;;;;;;;6.90;5.67;;;;;;;4.74;72.62;95631.06;5448886;26;20234;-78
2024/04/19 02:41:25;;;;;;;9.93;5.10;;;;;;;4.65;73.42;95618.88;5409371;26;20246;-79
2024/04/19 02:43:51;;;;;;;6.80;5.03;;;;;;;4.60;73.37;95613.25;5431548;26;20778;-78
2024/04/19 02:46:17;;;;;;;9.57;6.10;;;;;;;4.51;73.18;95616.47;5433702;26;20237;-79
2024/04/19 02:48:42;;;;;;;10.07;6.13;;;;;;;4.40;73.64;95609.50;5402163;26;20309;-78
2024/04/19 02:51:08;;;;;;;9.23;5.80;;;;;;;4.74;72.81;95607.09;5404163;26;20250;-79
2024/04/19 02:53:33;;;;;;;6.50;5.33;;;;;;;4.50;73.30;95604.53;5428351;26;20280;-79
2024/04/19 02:55:59;;;;;;;9.60;6.20;;;;;;;4.59;73.28;95600.47;5426658;26;20611;-79
2024/04/19 02:58:24;;;;;;;9.47;5.40;;;;;;;4.62;73.22;95593.38;5396175;26;20328;-78
2024/04/19 03:00:50;;;;;;;9.77;5.47;;;;;;;4.66;72.52;95593.97;5449185;26;20314;-79
2024/04/19 03:03:15;;;;;;;8.57;5.10;;;;;;;4.66;72.73;95586.25;5398986;26;20320;-77
2024/04/19 03:05:41;;;;;;;7.50;4.60;;;;;;;4.53;73.24;95586.31;5432512;26;20611;-77
2024/04/19 03:08:06;;;;;;;9.63;5.30;;;;;;;4.40;73.49;95580.41;5401419;26;20248;-77
2024/04/19 03:10:31;;;;;;;8.90;5.43;;;;;;;4.44;73.40;95580.09;5404579;26;20284;-77
2024/04/19 03:12:57;;;;;;;7.23;5.40;;;;;;;4.62;73.09;95574.56;5435526;26;20334;-77
2024/04/19 03:15:22;;;;;;;5.77;5.07;;;;;;;4.50;72.87;95568.50;5444998;26;20365;-78
2024/04/19 03:17:48;;;;;;;6.73;4.70;;;;;;;4.42;73.80;95579.38;5398571;26;20244;-78
2024/04/19 03:20:13;;;;;;;7.97;4.80;;;;;;;4.65;73.05;95579.47;5403437;26;20246;-77
2024/04/19 03:22:38;;;;;;;6.07;4.90;;;;;;;4.41;73.58;95574.31;5426871;26;20264;-78
2024/04/19 03:25:04;;;;;;;12.33;5.30;;;;;;;4.49;73.41;95577.16;5431366;26;20282;-77
2024/04/19 03:27:29;;;;;;;6.73;4.70;;;;;;;4.61;72.93;95571.16;5428461;26;20229;-77
2024/04/19 03:29:55;;;;;;;10.87;5.03;;;;;;;4.60;72.51;95569.53;5435276;26;20234;-78
2024/04/19 03:32:22;;;;;;;7.07;4.70;;;;;;;4.62;72.70;95562.50;5434259;26;20348;-78
2024/04/19 03:34:48;;;;;;;7.93;4.50;;;;;;;4.46;73.23;95562.78;5404492;26;20241;-78
2024/04/19 03:37:13;;;;;;;6.40;4.20;;;;;;;4.71;72.24;95556.69;5393515;26;20255;-77
2024/04/19 03:39:39;;;;;;;7.50;4.53;;;;;;;4.66;72.49;95556.19;5441870;26;20296;-78
2024/04/19 03:42:10;;;;;;;6.20;4.40;;;;;;;4.58;72.81;95550.78;5412177;26;20249;-78
2024/04/19 03:47:20;;;;;;;6.83;4.40;;;;;;;4.65;72.64;95549.41;5423183;26;20272;-77
2024/04/19 03:49:46;;;;;;;5.70;4.10;;;;;;;4.74;72.41;95546.16;5445675;26;20568;-77
2024/04/19 03:52:11;;;;;;;6.67;4.13;;;;;;;4.68;72.33;95544.06;5435150;26;20243;-77
2024/04/19 03:54:36;;;;;;;5.67;4.30;;;;;;;4.76;71.77;95546.88;5423837;26;20284;-77
2024/04/19 03:57:02;;;;;;;5.07;3.93;;;;;;;4.74;72.14;95551.31;5405306;26;20695;-77
2024/04/19 03:59:27;;;;;;;5.27;4.13;;;;;;;4.85;71.81;95545.38;5431293;26;20821;-77
2024/04/19 04:01:52;;;;;;;4.47;3.80;;;;;;;4.89;71.96;95549.38;5425572;26;20255;-78
2024/04/19 04:04:18;;;;;;;5.00;3.50;;;;;;;4.79;71.94;95541.53;5431156;26;20245;-77
2024/04/19 04:06:43;;;;;;;4.97;3.47;;;;;;;4.86;71.62;95546.19;5426348;26;20239;-79
2024/04/19 04:09:08;;;;;;;5.13;3.50;;;;;;;4.77;71.45;95540.81;5437533;26;20284;-77
2024/04/19 04:11:34;;;;;;;8.00;4.20;;;;;;;4.91;71.18;95524.34;5415044;26;20387;-79
2024/04/19 04:13:59;;;;;;;7.00;3.83;;;;;;;5.00;71.14;95530.56;5425123;26;20270;-77
2024/04/19 04:16:24;;;;;;;5.37;3.40;;;;;;;4.90;71.15;95529.63;5419546;26;20249;-78
2024/04/19 04:18:50;;;;;;;4.00;3.57;;;;;;;5.05;71.24;95526.72;5422503;26;20250;-76
2024/04/19 04:21:15;;;;;;;5.50;3.70;;;;;;;4.84;71.25;95521.41;5423680;26;20231;-77
2024/04/19 04:23:40;;;;;;;5.17;3.80;;;;;;;4.93;71.41;95519.09;5423748;26;20247;-78
2024/04/19 04:26:06;;;;;;;7.33;4.10;;;;;;;4.86;71.61;95517.91;5383306;26;20235;-77
2024/04/19 04:28:31;;;;;;;5.00;4.10;;;;;;;5.03;71.61;95520.84;5419164;26;21061;-77
2024/04/19 04:30:57;;;;;;;5.13;3.73;;;;;;;5.10;70.98;95521.22;5415335;26;20291;-78
2024/04/19 04:33:22;;;;;;;4.87;3.20;;;;;;;4.84;71.11;95518.00;5411208;26;20283;-76
2024/04/19 04:35:47;;;;;;;7.60;3.33;;;;;;;4.75;71.72;95511.78;5406813;26;20235;-78
2024/04/19 04:38:13;;;;;;;5.67;3.30;;;;;;;4.82;71.23;95501.88;5435624;26;20242;-78
2024/04/19 04:40:39;;;;;;;5.73;3.80;;;;;;;4.72;71.73;95491.44;5408125;26;20311;-78
2024/04/19 04:43:04;;;;;;;5.00;3.60;;;;;;;4.82;71.75;95499.31;5424521;26;20318;-77
2024/04/19 04:45:30;;;;;;;6.13;3.70;;;;;;;4.72;72.36;95491.44;5421465;26;20945;-77
2024/04/19 04:47:55;;;;;;;5.97;3.20;;;;;;;4.67;72.34;95493.53;5422933;26;20237;-77
2024/04/19 04:50:22;;;;;;;6.07;3.67;;;;;;;4.69;72.25;95498.59;5431311;26;20285;-77
2024/04/19 04:52:47;;;;;;;4.40;3.60;;;;;;;4.64;72.14;95498.91;5411458;26;20245;-77
2024/04/19 04:55:14;;;;;;;6.73;4.10;;;;;;;4.70;72.09;95497.66;5387696;26;20786;-77
2024/04/19 04:57:40;;;;;;;7.20;3.67;;;;;;;4.78;72.12;95495.34;5416629;26;20266;-77
2024/04/19 05:00:06;;;;;;;5.17;3.43;;;;;;;4.93;72.20;95498.50;5422769;26;20231;-77
2024/04/19 05:02:32;;;;;;;5.17;3.93;;;;;;;4.99;71.85;95510.91;5427669;26;20237;-78
2024/04/19 05:04:57;;;;;;;4.63;3.60;;;;;;;5.17;71.34;95506.97;5432238;26;20280;-77
2024/04/19 05:07:24;;;;;;;5.00;3.13;;;;;;;4.85;72.86;95506.78;5432987;26;20273;-77
2024/04/19 05:09:51;;;;;;;5.90;3.70;;;;;;;5.02;71.88;95508.09;5423835;26;20303;-78
2024/04/19 05:12:17;;;;;;;6.03;4.00;;;;;;;5.21;71.78;95505.81;5429334;26;20257;-78
2024/04/19 05:14:42;;;;;;;5.27;3.83;;;;;;;5.23;72.13;95510.84;5387632;26;20272;-77
2024/04/19 05:17:07;;;;;;;6.80;3.50;;;;;;;5.10;73.70;95511.75;5428515;26;20362;-78
2024/04/19 05:19:33;;;;;;;6.10;4.43;;;;;;;5.30;73.52;95506.84;5429001;26;20803;-78
2024/04/19 05:21:58;;;;;;;5.03;4.37;;;;;;;5.08;74.16;95505.91;5432702;26;20705;-77
2024/04/19 05:24:23;;;;;;;8.13;3.70;;;;;;;5.13;75.76;95510.72;5421318;26;20376;-77
2024/04/19 05:26:49;;;;;;;7.43;4.83;;;;;;;5.11;75.08;95507.41;5413495;26;20328;-78
2024/04/19 05:29:14;;;;;;;7.47;4.73;;;;;;;5.02;76.56;95508.91;5392166;26;20942;-77
2024/04/19 05:31:39;;;;;;;5.63;4.40;;;;;;;5.11;77.05;95512.56;5432347;26;20245;-77
2024/04/19 05:34:04;;;;;;;7.90;4.33;;;;;;;5.16;76.85;95504.50;5436453;26;20759;-77
2024/04/19 05:36:30;;;;;;;7.10;4.70;;;;;;;5.18;77.19;95508.59;5421110;26;20295;-77
2024/04/19 05:38:55;;;;;;;7.97;5.13;;;;;;;5.06;77.88;95501.81;5416804;26;20274;-77
2024/04/19 05:41:20;;;;;;;7.93;6.07;;;;;;;5.24;77.67;95503.00;5451669;26;20349;-78
2024/04/19 05:43:47;;;;;;;9.70;5.57;;;;;;;4.81;78.99;95492.53;5400384;26;20778;-78
2024/04/19 05:46:12;;;;;;;9.90;5.03;;;;;;;5.27;77.78;95496.78;5435065;26;20280;-78
2024/04/19 05:48:37;;;;;;;8.87;4.80;;;;;;;4.84;78.66;95489.72;5392341;26;20243;-78
2024/04/19 05:51:03;;;;;;;9.47;4.80;;;;;;;5.11;78.34;95486.81;5446399;26;20238;-77
2024/04/19 05:53:28;;;;;;;6.43;4.43;;;;;;;4.62;80.88;95475.06;5422051;26;20247;-77
2024/04/19 05:55:53;;;;;;;8.30;4.90;;;;;;;4.77;80.85;95478.22;5431514;26;20736;-77
2024/04/19 05:58:21;;;;;;;4.93;4.10;;;;;;;4.83;80.48;95470.88;5430048;26;20249;-77
2024/04/19 06:00:47;;;;;;;7.57;4.67;;;;;;;4.81;79.98;95467.59;5429245;26;20273;-78
2024/04/19 06:03:12;;;;;;;5.53;4.33;;;;;;;4.90;80.16;95467.84;5432830;26;20342;-78
2024/04/19 06:05:37;;;;;;;7.10;4.63;;;;;;;4.84;80.48;95469.13;5437709;26;20282;-80
2024/04/19 06:08:04;;;;;;;7.23;4.90;;;;;;;4.85;80.53;95470.75;5405706;26;20591;-78
2024/04/19 06:10:30;;;;;;;6.77;5.10;;;;;;;4.89;79.96;95467.03;5427657;26;20357;-76
2024/04/19 06:12:55;;;;;;;7.00;5.20;;;;;;;4.83;80.07;95464.91;5417520;26;20246;-77
2024/04/19 06:15:20;;;;;;;11.37;5.47;;;;;;;5.06;79.63;95458.06;5434784;26;20288;-77
2024/04/19 06:17:46;;;;;;;7.37;5.07;;;;;;;5.11;79.44;95456.75;5403447;26;20749;-76
2024/04/19 06:20:11;;;;;;;6.17;5.37;;;;;;;5.12;80.21;95465.28;5426514;26;20246;-77
2024/04/19 06:22:36;;;;;;;7.97;5.23;;;;;;;5.22;79.82;95455.97;5428664;26;20242;-76
2024/04/19 06:25:02;;;;;;;12.07;7.07;;;;;;;4.84;81.12;95451.94;5393565;26;20339;-76
2024/04/19 06:27:27;;;;;;;8.07;5.90;;;;;;;5.11;80.88;95461.09;5424250;26;20774;-77
2024/04/19 06:29:52;;;;;;;8.67;5.20;;;;;;;5.18;80.94;95449.38;5433449;26;20648;-77
2024/04/19 06:32:18;;;;;;;9.77;5.60;;;;;;;5.35;80.58;95450.69;5428420;26;20228;-77
2024/04/19 06:34:48;;;;;;;7.77;5.17;;;;;;;5.24;80.75;95440.38;5435016;26;20292;-77
2024/04/19 06:37:13;;;;;;;7.70;4.93;;;;;;;5.14;80.40;95436.88;5431001;26;20766;-77
2024/04/19 06:39:39;;;;;;;7.20;5.50;;;;;;;5.07;81.24;95436.53;5436037;26;20247;-77
2024/04/19 06:42:04;;;;;;;5.80;4.60;;;;;;;4.83;81.10;95436.63;5427165;26;20284;-77
2024/04/19 06:44:29;;;;;;;8.20;5.20;;;;;;;5.08;80.11;95433.00;5425299;26;20322;-77
2024/04/19 06:46:55;;;;;;;6.50;5.33;;;;;;;5.43;80.31;95414.03;5429306;26;20358;-77
2024/04/19 06:49:20;;;;;;;9.87;5.80;;;;;;;5.25;81.25;95411.94;5436028;26;20230;-78
2024/04/19 06:51:45;;;;;;;7.93;5.90;;;;;;;5.39;80.37;95413.47;5436377;26;20243;-77
2024/04/19 06:54:11;;;;;;;6.57;5.63;;;;;;;5.32;80.22;95414.88;5393869;26;20645;-77
2024/04/19 06:56:36;;;;;;;7.40;5.23;;;;;;;5.25;80.92;95413.69;5425906;26;20234;-77
2024/04/19 06:59:01;;;;;;;5.63;5.00;;;;;;;4.85;80.43;95403.88;5427612;26;20294;-78
2024/04/19 07:01:27;;;;;;;6.13;5.13;;;;;;;4.96;81.39;95405.66;5423682;26;20252;-79
2024/04/19 07:03:52;;;;;;;7.00;4.90;;;;;;;5.22;80.26;95407.03;5434441;26;20319;-78
2024/04/19 07:06:18;;;;;;;6.30;5.47;;;;;;;5.02;80.30;95394.88;5434974;26;20230;-78
2024/04/19 07:08:43;;;;;;;6.23;5.40;;;;;;;5.21;80.67;95399.41;5428193;26;20282;-77
2024/04/19 07:11:08;;;;;;;6.50;5.07;;;;;;;5.19;80.17;95386.66;5428803;26;20250;-78
2024/04/19 07:13:34;;;;;;;5.87;5.20;;;;;;;5.04;80.44;95378.38;5440674;26;20242;-78
2024/04/19 07:15:59;;;;;;;6.03;5.03;;;;;;;4.93;80.14;95372.41;5448819;26;20245;-79
2024/04/19 07:18:25;;;;;;;6.57;5.07;;;;;;;5.37;79.20;95372.34;5440850;26;20269;-78
2024/04/19 07:20:51;;;;;;;6.97;5.27;;;;;;;5.11;80.15;95371.81;5430883;26;20260;-79
2024/04/19 07:23:21;;;;;;;5.33;4.83;;;;;;;5.08;80.70;95374.63;5433562;26;20279;-77
2024/04/19 07:25:46;;;;;;;6.23;5.40;;;;;;;5.06;79.99;95366.22;5452559;26;20233;-78
2024/04/19 07:28:12;;;;;;;8.80;5.50;;;;;;;5.02;80.67;95369.13;5446868;26;20268;-77
2024/04/19 07:30:37;;;;;;;6.17;4.80;;;;;;;5.01;81.01;95365.75;5435402;26;20298;-78
2024/04/19 07:33:03;;;;;;;6.17;4.90;;;;;;;4.70;80.79;95354.41;5439113;26;20791;-78
2024/04/19 07:35:29;;;;;;;6.70;4.77;;;;;;;5.19;79.69;95352.38;5416212;26;20238;-77
2024/04/19 07:37:54;;;;;;;5.87;4.80;;;;;;;4.70;82.26;95356.16;5425937;26;20242;-77
2024/04/19 07:40:20;;;;;;;6.13;5.30;;;;;;;5.15;80.91;95362.13;5431613;26;20245;-77
2024/04/19 07:42:45;;;;;;;5.27;4.37;;;;;;;5.10;80.44;95361.63;5437119;26;20238;-78
2024/04/19 07:45:11;;;;;;;6.83;5.20;;;;;;;4.71;81.74;95355.22;5424094;26;20317;-78
2024/04/19 07:47:37;;;;;;;6.27;5.33;;;;;;;4.99;81.90;95359.09;5427558;26;20231;-78
2024/04/19 07:50:03;;;;;;;5.70;4.70;;;;;;;5.01;82.49;95352.88;5393523;26;20324;-79
2024/04/19 07:52:28;;;;;;;5.60;5.00;;;;;;;4.81;81.33;95351.84;5396881;26;20243;-78
2024/04/19 07:54:54;;;;;;;5.43;4.93;;;;;;;4.69;81.64;95347.63;5430255;26;20723;-78
2024/04/19 07:57:19;;;;;;;5.80;4.67;;;;;;;4.86;81.77;95348.94;5428208;26;20735;-78
2024/04/19 07:59:44;;;;;;;6.33;4.73;;;;;;;4.51;83.32;95360.13;5396214;26;20241;-77
2024/04/19 08:02:09;;;;;;;6.27;4.70;;;;;;;4.95;81.03;95337.94;5386613;26;20832;-78
2024/04/19 08:04:35;;;;;;;4.60;4.03;;;;;;;4.93;81.24;95342.34;5388148;26;20746;-78
2024/04/19 08:07:00;;;;;;;4.33;3.93;;;;;;;4.75;82.01;95336.03;5431522;26;20728;-78
2024/04/19 08:09:27;;;;;;;4.57;4.10;;;;;;;4.90;81.25;95344.34;5430012;26;20230;-78
2024/04/19 08:11:52;;;;;;;4.33;3.93;;;;;;;4.86;81.46;95332.63;5427743;26;20279;-78
2024/04/19 08:14:17;;;;;;;5.30;4.43;;;;;;;4.80;82.08;95339.91;5429956;26;20247;-78
2024/04/19 08:16:43;;;;;;;4.03;3.63;;;;;;;5.00;81.40;95333.22;5436787;26;20290;-80
2024/04/19 08:19:10;;;;;;;4.00;3.40;;;;;;;4.71;81.51;95327.75;5403745;26;20272;-79
2024/04/19 08:21:35;;;;;;;3.23;2.93;;;;;;;4.23;83.63;95330.50;5427619;26;20302;-79
2024/04/19 08:24:02;;;;;;;3.77;2.70;;;;;;;4.36;82.49;95309.03;5431434;26;20246;-80
2024/04/19 08:26:27;;;;;;;3.53;3.20;;;;;;;4.30;82.89;95309.50;5442664;26;20230;-79
2024/04/19 08:28:53;;;;;;;2.60;2.40;;;;;;;4.58;82.18;95293.59;5398807;26;20244;-80
2024/04/19 08:31:18;;;;;;;3.30;3.00;;;;;;;4.51;82.36;95292.47;5430957;26;20296;-79
2024/04/19 08:33:43;;;;;;;3.60;2.20;;;;;;;3.98;84.25;95302.44;5400666;26;20241;-80
2024/04/19 08:36:08;;;;;;;3.50;2.47;;;;;;;4.52;83.21;95294.91;5429779;26;20732;-80
2024/04/19 08:38:34;;;;;;;2.60;2.40;;;;;;;4.15;83.82;95284.03;5435698;26;20343;-79
2024/04/19 08:41:03;;;;;;;2.67;2.47;;;;;;;4.11;84.29;95277.47;5402529;26;20343;-80
2024/04/19 08:43:33;;;;;;;3.07;2.63;;;;;;;4.23;84.21;95268.00;5426890;26;20241;-79
2024/04/19 08:46:00;;;;;;;2.40;2.20;;;;;;;4.41;84.22;95265.78;5426930;26;20412;-80
2024/04/19 08:48:26;;;;;;;3.00;2.70;;;;;;;4.16;84.89;95257.38;5424826;26;20277;-81
2024/04/19 08:50:52;;;;;;;3.13;2.40;;;;;;;4.25;84.11;95261.81;5437327;26;21012;-80
2024/04/19 08:53:18;;;;;;;3.50;2.87;;;;;;;4.22;84.44;95251.75;5430970;26;20284;-80
2024/04/19 08:55:44;;;;;;;19.33;12.33;;;;;;;4.05;85.18;95246.25;5428765;26;20742;-79
2024/04/19 08:58:09;;;;;;;11.10;6.27;;;;;;;4.08;86.13;95244.28;5400630;26;20278;-79
2024/04/19 09:00:35;;;;;;;7.90;5.43;;;;;;;4.46;84.65;95243.13;5441288;26;20251;-80
2024/04/19 09:03:00;;;;;;;4.90;3.47;;;;;;;3.72;86.81;95241.91;5437127;26;20284;-79
2024/04/19 09:05:26;;;;;;;11.23;7.00;;;;;;;3.88;86.31;95232.09;5395140;26;20599;-80
2024/04/19 09:07:51;;;;;;;5.37;3.20;;;;;;;3.90;86.75;95225.94;5425336;26;20353;-80
2024/04/19 09:10:20;;;;;;;2.20;2.00;;;;;;;3.86;87.05;95233.97;5404432;26;20287;-79
2024/04/19 09:12:45;;;;;;;4.33;3.93;;;;;;;3.97;87.21;95213.44;5424684;26;20242;-80
2024/04/19 09:15:11;;;;;;;3.67;3.37;;;;;;;4.01;86.34;95212.28;5394323;26;20242;-80
2024/04/19 09:17:36;;;;;;;2.63;2.43;;;;;;;3.66;88.72;95204.63;5428779;26;20230;-80
2024/04/19 09:20:02;;;;;;;2.00;1.80;;;;;;;4.15;86.43;95206.94;5402464;26;20250;-81
2024/04/19 09:22:27;;;;;;;2.50;2.30;;;;;;;4.04;87.30;95191.47;5400220;26;20266;-80
2024/04/19 09:24:55;;;;;;;3.20;2.07;;;;;;;4.25;86.99;95184.72;5440804;26;20238;-80
2024/04/19 09:27:23;;;;;;;1.93;1.77;;;;;;;4.09;87.82;95184.25;5426755;26;20244;-80
2024/04/19 09:29:52;;;;;;;1.83;1.70;;;;;;;4.44;86.32;95183.28;5433303;26;20239;-81
2024/04/19 09:32:21;;;;;;;1.50;1.40;;;;;;;4.11;87.30;95172.09;5398485;26;20238;-80
2024/04/19 09:34:46;;;;;;;1.67;1.57;;;;;;;4.66;86.23;95169.56;5436183;26;20287;-80
2024/04/19 09:37:13;;;;;;;2.13;2.00;;;;;;;4.84;85.60;95157.81;5404141;26;20239;-81
2024/04/19 09:39:39;;;;;;;1.70;1.60;;;;;;;4.58;85.57;95154.72;5437659;26;20632;-80
2024/04/19 09:42:04;;;;;;;1.87;1.53;;;;;;;4.55;85.89;95145.50;5437558;26;20245;-81
2024/04/19 09:44:31;;;;;;;1.83;1.73;;;;;;;4.35;86.25;95143.69;5430428;26;20238;-81
2024/04/19 09:47:02;;;;;;;2.00;1.90;;;;;;;4.41;86.61;95148.34;5427539;26;20659;-82
2024/04/19 09:49:30;;;;;;;2.30;2.10;;;;;;;4.62;86.21;95140.72;5438797;26;20238;-80
2024/04/19 09:51:55;;;;;;;1.90;1.50;;;;;;;4.71;85.46;95134.84;5438778;26;20351;-81
2024/04/19 09:54:22;;;;;;;2.20;2.00;;;;;;;4.92;84.88;95142.59;5431714;26;20235;-81
2024/04/19 09:56:58;;;;;;;2.23;2.03;;;;;;;4.88;84.94;95133.50;5430881;26;20775;-80
2024/04/19 09:59:24;;;;;;;2.10;1.80;;;;;;;5.01;84.40;95133.31;5395480;26;20643;-80
2024/04/19 10:01:51;;;;;;;2.50;2.30;;;;;;;4.44;86.26;95130.13;5435688;26;20596;-80
2024/04/19 10:04:16;;;;;;;2.57;1.90;;;;;;;4.84;85.08;95132.09;5432752;26;20705;-81
2024/04/19 10:06:42;;;;;;;1.90;1.73;;;;;;;4.79;86.15;95131.66;5435405;26;20232;-80
2024/04/19 10:09:13;;;;;;;2.43;2.20;;;;;;;5.04;84.84;95115.06;5398531;26;20268;-81
2024/04/19 10:11:39;;;;;;;2.80;2.60;;;;;;;5.33;84.54;95115.25;5429014;26;20278;-80
2024/04/19 10:14:05;;;;;;;3.33;2.57;;;;;;;5.26;84.66;95107.22;5397697;26;20247;-80
2024/04/19 10:16:31;;;;;;;3.07;1.90;;;;;;;5.14;85.06;95095.34;5440791;26;20278;-80
2024/04/19 10:18:56;;;;;;;3.43;2.27;;;;;;;5.16;86.05;95097.78;5429912;26;20239;-80
2024/04/19 10:21:28;;;;;;;2.20;2.00;;;;;;;5.03;85.37;95087.66;5431841;26;20246;-79
2024/04/19 10:23:54;;;;;;;2.50;2.00;;;;;;;5.34;84.75;95085.97;5421208;26;20250;-83
2024/04/19 10:26:23;;;;;;;4.97;4.47;;;;;;;5.56;84.28;95078.09;5425393;26;20242;-77
2024/04/19 10:28:49;;;;;;;4.37;3.97;;;;;;;5.74;83.69;95083.47;5443542;26;20289;-78
2024/04/19 10:31:15;;;;;;;4.97;3.83;;;;;;;5.27;84.83;95070.22;5407800;26;20246;-78
2024/04/19 10:33:41;;;;;;;3.00;2.70;;;;;;;5.58;84.58;95076.22;5438396;26;20273;-79
2024/04/19 10:36:10;;;;;;;2.00;1.90;;;;;;;5.15;84.32;95058.38;5406336;26;20272;-79
2024/04/19 10:38:35;;;;;;;1.80;1.70;;;;;;;4.90;85.91;95063.91;5435106;26;20242;-78
2024/04/19 10:41:01;;;;;;;4.97;4.13;;;;;;;5.62;83.83;95064.72;5449573;26;20249;-79
2024/04/19 10:43:26;;;;;;;3.87;3.37;;;;;;;5.61;83.59;95054.53;5438882;26;20723;-81
2024/04/19 10:45:52;;;;;;;3.60;3.30;;;;;;;5.76;83.84;95050.66;5425606;26;20696;-80
2024/04/19 10:48:20;;;;;;;3.43;2.93;;;;;;;5.75;83.59;95033.59;5428775;26;20736;-80
2024/04/19 10:50:46;;;;;;;2.90;2.60;;;;;;;5.80;82.69;95038.34;5396678;26;20671;-80
2024/04/19 10:53:11;;;;;;;2.10;1.90;;;;;;;5.43;84.21;95031.16;5399210;26;20322;-80
2024/04/19 10:55:38;;;;;;;5.20;4.20;;;;;;;6.07;83.33;95022.28;5427571;26;20235;-80
2024/04/19 10:58:03;;;;;;;2.17;1.97;;;;;;;5.87;82.15;95026.56;5433395;26;20235;-80
2024/04/19 11:00:29;;;;;;;2.53;2.33;;;;;;;5.46;83.29;95028.31;5425350;26;20278;-80
2024/04/19 11:02:56;;;;;;;2.27;2.07;;;;;;;5.59;82.78;95028.91;5407808;26;20252;-81
2024/04/19 11:05:22;;;;;;;2.67;2.47;;;;;;;5.78;83.18;95010.13;5431055;26;20593;-80
2024/04/19 11:07:48;;;;;;;2.20;1.90;;;;;;;5.26;84.44;95017.09;5436020;26;20602;-81
2024/04/19 11:10:13;;;;;;;2.33;1.83;;;;;;;5.78;83.58;95017.84;5404081;26;20284;-82
2024/04/19 11:12:39;;;;;;;1.67;1.57;;;;;;;5.64;83.29;95013.06;5426877;26;20238;-79
2024/04/19 11:15:05;;;;;;;2.23;1.70;;;;;;;5.69;83.47;95013.50;5440153;26;20284;-80
2024/04/19 11:17:31;;;;;;;1.57;1.47;;;;;;;5.63;82.87;94995.97;5363936;26;20264;-80
2024/04/19 11:19:56;;;;;;;2.90;2.27;;;;;;;5.63;83.70;95003.69;5427659;26;20711;-80
2024/04/19 11:22:22;;;;;;;1.43;1.33;;;;;;;5.36;83.25;94997.38;5436572;26;20293;-78
2024/04/19 11:24:47;;;;;;;1.50;1.40;;;;;;;5.49;83.82;95001.50;5439625;26;20317;-80
2024/04/19 11:27:13;;;;;;;2.20;1.93;;;;;;;5.51;82.92;95003.00;5436016;26;20341;-79
2024/04/19 11:29:40;;;;;;;1.70;1.40;;;;;;;5.48;82.90;94989.53;5432023;26;20302;-79
2024/04/19 11:32:08;;;;;;;2.43;1.20;;;;;;;5.37;84.25;94977.59;5431993;26;20748;-80
2024/04/19 11:34:34;;;;;;;1.20;1.10;;;;;;;5.43;82.84;94986.56;5434051;26;20314;-80
2024/04/19 11:37:02;;;;;;;1.07;0.97;;;;;;;5.42;83.82;94974.63;5437410;26;20245;-80
2024/04/19 11:39:27;;;;;;;4.40;3.47;;;;;;;5.66;82.72;94986.25;5389264;26;20243;-80